Time;durP1;ratioP1;P1;durP2;ratioP2;P2;SDS_P1;SDS_P2;PMS_P1;PMS_P2;Temp;Humidity;BMP_temperature;BMP_pressure;BME280_temperature;BME280_humidity;BME280_pressure;Samples;Min_cycle;Max_cycle;Signal;HPM_P1;HPM_P2
2021/12/19 00:09:33;;;;;;;15.25;8.43;;;;;;;0.19;84.93;98265.99;1721255;81;21277;-79
2021/12/19 00:11:59;;;;;;;17.55;9.25;;;;;;;0.09;84.70;98258.02;1725422;83;21001;-79
2021/12/19 00:14:26;;;;;;;16.82;8.98;;;;;;;0.09;85.18;98250.65;1726339;83;20986;-79
2021/12/19 00:16:59;;;;;;;14.47;8.00;;;;;;;0.01;86.83;98255.73;1725462;83;21012;-79
2021/12/19 00:19:26;;;;;;;17.70;8.33;;;;;;;-0.02;86.49;98253.06;1725973;83;20965;-79
2021/12/19 00:21:53;;;;;;;14.00;8.30;;;;;;;-0.01;85.38;98248.30;1726083;83;21037;-80
2021/12/19 00:24:21;;;;;;;14.68;7.45;;;;;;;-0.04;86.68;98246.52;1725558;82;20997;-80
2021/12/19 00:26:48;;;;;;;18.87;8.53;;;;;;;-0.08;87.66;98236.03;1707666;83;21021;-80
2021/12/19 00:29:15;;;;;;;12.98;7.60;;;;;;;-0.07;86.61;98241.69;1701450;84;21006;-80
2021/12/19 00:31:43;;;;;;;16.97;8.20;;;;;;;-0.11;87.98;98241.17;1701478;84;20990;-81
2021/12/19 00:34:10;;;;;;;16.67;8.13;;;;;;;-0.14;88.12;98230.28;1709575;83;20971;-79
2021/12/19 00:36:39;;;;;;;13.90;7.92;;;;;;;-0.13;88.13;98232.03;1729486;83;21010;-81
2021/12/19 00:39:06;;;;;;;15.03;7.65;;;;;;;-0.13;87.87;98229.42;1730020;83;20978;-78
2021/12/19 00:41:33;;;;;;;15.32;8.28;;;;;;;-0.11;87.52;98233.36;1730660;83;21014;-78
2021/12/19 00:44:10;;;;;;;15.83;8.48;;;;;;;-0.09;87.60;98236.89;1729785;83;20963;-79
2021/12/19 00:46:51;;;;;;;15.80;8.30;;;;;;;-0.09;88.54;98228.62;1701464;84;21049;-79
2021/12/19 00:49:18;;;;;;;12.13;7.58;;;;;;;-0.08;88.70;98230.82;1701307;84;21435;-80
2021/12/19 00:51:49;;;;;;;14.60;7.90;;;;;;;-0.09;88.35;98227.33;1701569;84;21010;-79
2021/12/19 00:54:21;;;;;;;14.60;8.03;;;;;;;-0.06;88.35;98221.28;1710047;83;21001;-79
2021/12/19 00:56:48;;;;;;;18.32;8.75;;;;;;;-0.05;89.08;98223.92;1730704;82;21010;-79
2021/12/19 00:59:16;;;;;;;17.32;8.88;;;;;;;0.03;87.47;98217.98;1730651;82;20979;-80
2021/12/19 01:01:48;;;;;;;15.80;8.50;;;;;;;0.03;87.93;98215.38;1730860;83;21032;-80
2021/12/19 01:04:20;;;;;;;16.57;8.80;;;;;;;0.13;87.33;98206.84;1702545;83;21005;-80
2021/12/19 01:06:49;;;;;;;17.02;9.63;;;;;;;0.16;87.68;98206.88;1701453;84;21366;-80
2021/12/19 01:09:19;;;;;;;16.95;9.03;;;;;;;0.18;87.05;98214.72;1701497;83;20974;-80
2021/12/19 01:11:49;;;;;;;14.25;8.33;;;;;;;0.17;87.01;98198.64;1701556;83;20954;-80
2021/12/19 01:14:17;;;;;;;15.85;8.50;;;;;;;0.14;87.51;98191.65;1729367;83;21371;-80
2021/12/19 01:16:44;;;;;;;13.68;7.50;;;;;;;0.13;87.82;98189.91;1730827;82;21021;-80
2021/12/19 01:19:11;;;;;;;15.00;8.45;;;;;;;0.16;87.48;98193.84;1731066;82;21404;-80
2021/12/19 01:21:37;;;;;;;17.32;8.48;;;;;;;0.15;87.46;98191.20;1714368;82;21621;-80
2021/12/19 01:24:04;;;;;;;17.17;8.53;;;;;;;0.12;87.84;98181.61;1701868;83;21459;-80
2021/12/19 01:26:31;;;;;;;17.17;8.55;;;;;;;0.12;86.35;98186.41;1697512;84;20986;-80
2021/12/19 01:28:58;;;;;;;16.97;8.23;;;;;;;0.15;87.46;98191.20;1730016;82;21040;-79
2021/12/19 01:31:25;;;;;;;15.40;8.33;;;;;;;0.10;87.13;98186.83;1740020;81;20970;-80
2021/12/19 01:33:51;;;;;;;15.85;8.23;;;;;;;0.11;86.54;98181.17;1739274;82;21041;-79
2021/12/19 01:36:18;;;;;;;14.33;8.30;;;;;;;0.15;86.10;98176.88;1739288;82;21029;-80
2021/12/19 01:38:45;;;;;;;16.00;8.70;;;;;;;0.18;86.32;98173.02;1739858;81;21013;-79
2021/12/19 01:41:13;;;;;;;13.90;8.20;;;;;;;0.19;86.41;98174.34;1749551;81;21021;-79
2021/12/19 01:43:41;;;;;;;18.77;9.03;;;;;;;0.19;86.90;98166.95;1769825;81;20966;-80
2021/12/19 01:46:08;;;;;;;15.80;8.38;;;;;;;0.19;87.22;98171.75;1769589;81;20985;-80
2021/12/19 01:48:34;;;;;;;17.37;9.08;;;;;;;0.20;86.91;98166.97;1769577;81;20985;-80
2021/12/19 01:51:01;;;;;;;15.70;9.23;;;;;;;0.21;86.23;98168.72;1761856;81;20981;-80
2021/12/19 01:53:28;;;;;;;17.32;8.93;;;;;;;0.15;86.50;98171.24;1742427;80;21440;-80
2021/12/19 01:55:56;;;;;;;16.42;8.90;;;;;;;0.15;86.78;98160.81;1750325;79;21009;-80
2021/12/19 01:58:23;;;;;;;16.48;9.53;;;;;;;0.13;87.25;98161.23;1741259;81;21281;-80
2021/12/19 02:00:54;;;;;;;18.10;9.15;;;;;;;0.07;87.35;98157.21;1739247;82;21478;-79
2021/12/19 02:03:22;;;;;;;18.45;9.33;;;;;;;0.07;87.95;98148.98;1738215;82;21037;-79
2021/12/19 02:05:49;;;;;;;13.98;7.67;;;;;;;0.06;87.88;98157.66;1739173;82;21044;-79
2021/12/19 02:08:18;;;;;;;14.58;7.50;;;;;;;0.04;87.58;98154.13;1739844;81;20977;-79
2021/12/19 02:10:45;;;;;;;16.60;8.23;;;;;;;0.04;88.14;98150.67;1747330;82;21032;-79
2021/12/19 02:13:15;;;;;;;13.62;7.87;;;;;;;0.04;87.33;98144.16;1747400;82;20977;-79
2021/12/19 02:15:44;;;;;;;15.78;8.08;;;;;;;0.06;87.11;98147.23;1739497;82;20981;-79
2021/12/19 02:18:17;;;;;;;14.23;7.70;;;;;;;0.05;87.47;98140.27;1758395;81;20966;-80
2021/12/19 02:20:52;;;;;;;14.80;6.85;;;;;;;0.06;89.09;98138.11;1769062;80;21506;-79
2021/12/19 02:23:24;;;;;;;13.25;7.83;;;;;;;0.11;87.58;98144.27;1769577;81;21002;-79
2021/12/19 02:25:51;;;;;;;12.85;7.35;;;;;;;0.13;87.81;98126.91;1769815;81;20998;-79
2021/12/19 02:28:19;;;;;;;14.93;7.70;;;;;;;0.20;88.04;98133.53;1746875;81;20992;-79
2021/12/19 02:30:47;;;;;;;12.60;7.03;;;;;;;0.22;89.09;98132.70;1705307;83;21055;-79
2021/12/19 02:33:20;;;;;;;11.83;6.83;;;;;;;0.28;88.17;98127.13;1734501;83;20953;-79
2021/12/19 02:35:56;;;;;;;14.98;7.30;;;;;;;0.32;88.39;98121.95;1717281;82;21052;-79
2021/12/19 02:49:23;;;;;;;11.60;6.58;;;;;;;0.26;88.03;98106.23;1717447;82;20989;-79
2021/12/19 02:51:53;;;;;;;9.40;6.37;;;;;;;0.20;88.05;98108.33;1716949;84;21024;-79
2021/12/19 02:54:22;;;;;;;11.22;6.42;;;;;;;0.19;88.17;98112.20;1717228;84;21414;-79
2021/12/19 02:56:50;;;;;;;12.85;6.78;;;;;;;0.18;87.12;98105.25;1717437;82;20984;-79
2021/12/19 02:59:17;;;;;;;14.68;6.47;;;;;;;0.15;87.61;98105.20;1746186;82;21016;-79
2021/12/19 03:01:45;;;;;;;13.65;6.62;;;;;;;0.13;88.95;98100.84;1746678;82;21073;-79
2021/12/19 03:04:13;;;;;;;14.60;6.83;;;;;;;0.15;87.28;98102.17;1744726;80;20945;-79
2021/12/19 03:06:46;;;;;;;12.13;6.50;;;;;;;0.13;87.12;98094.33;1752598;80;20981;-80
2021/12/19 03:09:21;;;;;;;11.18;6.33;;;;;;;0.15;87.49;98090.45;1717331;82;20980;-79
2021/12/19 03:20:01;;;;;;;10.13;5.87;;;;;;;0.07;89.13;98083.83;1716997;84;20965;-79
2021/12/19 03:22:28;;;;;;;12.13;6.33;;;;;;;0.08;88.09;98081.66;1716969;83;21017;-79
2021/12/19 03:24:54;;;;;;;9.83;6.00;;;;;;;0.07;88.96;98078.61;1716972;83;21032;-80
2021/12/19 03:27:21;;;;;;;11.57;6.40;;;;;;;0.09;87.68;98075.59;1717584;82;20953;-79
2021/12/19 03:29:47;;;;;;;12.25;5.67;;;;;;;0.13;87.23;98076.08;1717079;82;21016;-79
2021/12/19 03:32:13;;;;;;;11.22;6.30;;;;;;;0.15;87.15;98068.70;1738493;82;21013;-79
2021/12/19 03:34:40;;;;;;;9.20;5.58;;;;;;;0.15;87.07;98074.81;1746518;82;21075;-80
2021/12/19 03:37:07;;;;;;;10.53;5.92;;;;;;;0.21;87.23;98074.03;1746661;82;20977;-80
2021/12/19 03:39:44;;;;;;;9.30;5.85;;;;;;;0.21;87.61;98068.81;1746035;82;21451;-80
2021/12/19 03:42:07;;;;;;;12.40;6.87;;;;;;;0.20;87.96;98060.11;1743903;82;20969;-79
2021/12/19 03:44:33;;;;;;;11.20;5.55;;;;;;;0.24;87.54;98059.30;1746717;82;21426;-80
2021/12/19 03:47:01;;;;;;;9.18;5.65;;;;;;;0.23;88.45;98048.42;1746483;82;21034;-80
2021/12/19 03:49:28;;;;;;;10.35;5.80;;;;;;;0.26;87.31;98047.59;1746558;82;21446;-80
2021/12/19 03:51:54;;;;;;;11.95;7.20;;;;;;;0.29;87.82;98043.70;1729922;82;21009;-80
2021/12/19 03:54:22;;;;;;;14.73;7.42;;;;;;;0.25;87.84;98041.48;1717167;84;20998;-79
2021/12/19 03:56:48;;;;;;;16.48;7.65;;;;;;;0.24;87.50;98033.23;1716890;83;21005;-79
2021/12/19 03:59:15;;;;;;;22.55;9.70;;;;;;;0.25;87.47;98030.20;1717070;84;21034;-79
2021/12/19 04:01:47;;;;;;;20.65;9.23;;;;;;;0.26;87.69;98025.43;1717442;82;21344;-78
2021/12/19 04:04:12;;;;;;;17.75;9.23;;;;;;;0.28;87.44;98030.22;1716571;83;20982;-79
2021/12/19 04:06:38;;;;;;;18.95;8.95;;;;;;;0.31;87.19;98034.59;1719071;82;21005;-79
2021/12/19 04:09:05;;;;;;;18.70;9.30;;;;;;;0.35;87.37;98028.16;1739817;82;21465;-79
2021/12/19 04:11:33;;;;;;;16.57;10.78;;;;;;;0.41;88.15;98026.47;1734764;82;21036;-79
2021/12/19 04:14:00;;;;;;;16.80;9.73;;;;;;;0.44;88.12;98024.77;1717064;84;21067;-79
2021/12/19 04:16:30;;;;;;;13.95;8.40;;;;;;;0.43;88.33;98022.14;1716801;83;21351;-80
2021/12/19 04:18:57;;;;;;;12.10;7.70;;;;;;;0.47;87.93;98020.91;1716959;83;21406;-78
2021/12/19 04:21:23;;;;;;;12.37;8.30;;;;;;;0.50;87.65;98020.92;1717650;82;21060;-80
2021/12/19 04:23:51;;;;;;;12.07;7.67;;;;;;;0.55;87.85;98022.29;1716939;83;21092;-79
2021/12/19 04:26:17;;;;;;;12.40;7.75;;;;;;;0.59;87.60;98008.43;1717135;84;21382;-79
2021/12/19 04:28:44;;;;;;;13.18;7.17;;;;;;;0.60;87.75;98004.95;1722114;82;21067;-79
2021/12/19 04:31:10;;;;;;;13.10;6.25;;;;;;;0.61;87.26;98000.17;1744833;81;20946;-79
2021/12/19 04:33:41;;;;;;;11.63;6.10;;;;;;;0.61;87.11;98001.90;1769733;81;21041;-80
2021/12/19 04:36:11;;;;;;;9.28;5.25;;;;;;;0.61;86.96;98001.48;1769372;81;21009;-80
2021/12/19 04:57:28;;;;;;;8.65;5.17;;;;;;;0.29;87.58;97981.58;1769669;81;21505;-80
2021/12/19 04:59:54;;;;;;;12.30;6.30;;;;;;;0.30;87.07;97976.80;1766735;81;21001;-80
2021/12/19 05:05:19;;;;;;;11.43;6.37;;;;;;;0.34;86.84;97977.29;1739264;82;21020;-80
2021/12/19 05:15:54;;;;;;;15.48;7.25;;;;;;;0.41;87.54;97979.54;1739285;82;20996;-81
2021/12/19 05:18:26;;;;;;;17.50;7.75;;;;;;;0.41;86.82;97978.23;1739072;82;21049;-80
2021/12/19 05:20:57;;;;;;;15.20;8.43;;;;;;;0.39;86.84;97983.02;1738569;82;21024;-80
2021/12/19 05:23:33;;;;;;;12.50;7.45;;;;;;;0.42;86.77;97975.66;1738961;82;21468;-80
2021/12/19 05:25:51;;;;;;;14.83;7.85;;;;;;;0.43;87.02;97977.39;1737323;81;21053;-80
2021/12/19 05:28:17;;;;;;;13.32;7.60;;;;;;;0.43;86.73;97968.69;1745736;81;21052;-79
2021/12/19 05:30:45;;;;;;;14.73;7.62;;;;;;;0.46;86.68;97964.82;1752187;80;21069;-80
2021/12/19 05:33:12;;;;;;;12.10;7.42;;;;;;;0.47;86.73;97970.47;1703755;83;21014;-80
2021/12/19 05:45:11;;;;;;;11.50;6.55;;;;;;;0.47;86.59;97961.34;1715922;83;20966;-80
2021/12/19 05:46:40;;;;;;;11.40;6.62;;;;;;;0.44;87.00;97958.69;1698634;84;20986;-80
2021/12/19 05:49:10;;;;;;;12.05;6.78;;;;;;;0.36;86.75;97960.81;1701830;83;20954;-80
2021/12/19 05:51:38;;;;;;;12.13;7.25;;;;;;;0.35;87.31;97964.28;1708954;83;20994;-80
2021/12/19 05:54:06;;;;;;;15.15;8.55;;;;;;;0.36;88.08;97945.58;1730656;83;21041;-80
2021/12/19 05:56:33;;;;;;;13.15;7.90;;;;;;;0.38;88.83;97939.52;1730854;82;20954;-80
2021/12/19 05:58:59;;;;;;;15.70;8.65;;;;;;;0.38;88.76;97928.23;1730907;82;21009;-80
2021/12/19 06:01:27;;;;;;;12.88;7.08;;;;;;;0.36;88.62;97926.91;1726105;82;20970;-80
2021/12/19 06:03:54;;;;;;;15.80;8.33;;;;;;;0.37;88.66;97927.77;1720072;83;21028;-80
2021/12/19 06:06:20;;;;;;;15.13;8.80;;;;;;;0.34;89.45;97928.61;1720069;83;20976;-80
2021/12/19 06:08:47;;;;;;;15.50;8.60;;;;;;;0.37;88.97;97923.86;1702288;83;21061;-80
2021/12/19 06:11:14;;;;;;;14.83;8.45;;;;;;;0.35;88.74;97922.98;1703584;83;20986;-80
2021/12/19 06:13:41;;;;;;;16.52;9.03;;;;;;;0.37;89.32;97918.64;1730766;83;20998;-79
2021/12/19 06:16:08;;;;;;;16.27;8.65;;;;;;;0.37;88.89;97917.34;1731005;82;20978;-80
2021/12/19 06:18:35;;;;;;;17.55;8.85;;;;;;;0.37;88.57;97911.70;1731061;83;21026;-80
2021/12/19 06:21:02;;;;;;;20.92;10.13;;;;;;;0.35;89.15;97911.25;1731036;83;21447;-80
2021/12/19 06:23:28;;;;;;;18.23;9.05;;;;;;;0.35;88.19;97900.41;1702500;83;21408;-80
2021/12/19 06:25:58;;;;;;;17.62;9.18;;;;;;;0.35;88.97;97913.44;1702078;84;21037;-80
2021/12/19 06:28:25;;;;;;;17.30;9.45;;;;;;;0.34;88.25;97907.75;1701898;83;21104;-80
2021/12/19 06:30:51;;;;;;;17.27;9.75;;;;;;;0.31;88.82;97910.35;1711000;82;21068;-80
2021/12/19 06:33:19;;;;;;;19.35;10.60;;;;;;;0.30;88.93;97898.19;1753772;82;21403;-80
2021/12/19 06:35:46;;;;;;;17.67;9.80;;;;;;;0.30;88.33;97896.87;1756832;82;21000;-80
2021/12/19 06:38:14;;;;;;;18.27;9.48;;;;;;;0.31;88.35;97891.22;1756515;81;21060;-81
2021/12/19 06:40:41;;;;;;;18.95;9.93;;;;;;;0.33;88.38;97876.48;1747551;82;20969;-79
2021/12/19 06:43:07;;;;;;;19.52;10.28;;;;;;;0.36;88.06;97869.55;1746525;82;21037;-79
2021/12/19 06:45:34;;;;;;;17.25;8.38;;;;;;;0.36;88.04;97876.08;1746514;82;21048;-80
2021/12/19 06:48:01;;;;;;;17.23;8.50;;;;;;;0.38;89.13;97866.52;1746766;82;21407;-80
2021/12/19 06:50:27;;;;;;;16.17;9.20;;;;;;;0.39;87.93;97863.50;1745567;82;20957;-80
2021/12/19 06:52:55;;;;;;;18.92;8.93;;;;;;;0.41;88.27;97857.85;1746565;82;21024;-80
2021/12/19 06:55:23;;;;;;;17.00;9.25;;;;;;;0.42;88.21;97853.52;1746635;82;20985;-80
2021/12/19 06:57:50;;;;;;;17.25;9.00;;;;;;;0.43;89.25;97850.94;1746539;82;21447;-80
2021/12/19 07:00:23;;;;;;;18.10;9.25;;;;;;;0.41;88.92;97837.45;1717620;82;20961;-80
2021/12/19 07:02:53;;;;;;;15.80;8.40;;;;;;;0.44;88.63;97822.69;1694705;84;21494;-79
2021/12/19 07:05:20;;;;;;;14.95;8.65;;;;;;;0.49;88.18;97827.93;1717145;84;21012;-80
2021/12/19 07:07:47;;;;;;;18.25;8.65;;;;;;;0.52;88.02;97827.55;1717044;83;21009;-80
2021/12/19 07:10:13;;;;;;;17.45;9.68;;;;;;;0.47;87.72;97817.93;1744924;82;21311;-80
2021/12/19 07:12:41;;;;;;;16.65;8.90;;;;;;;0.54;87.83;97818.86;1746352;82;21001;-80
2021/12/19 07:15:09;;;;;;;16.52;8.15;;;;;;;0.55;87.90;97817.57;1746735;82;21005;-80
2021/12/19 07:17:36;;;;;;;14.83;8.10;;;;;;;0.57;88.20;97797.58;1746646;82;20994;-80
2021/12/19 07:20:05;;;;;;;14.43;8.48;;;;;;;0.63;87.97;97799.37;1721123;82;20973;-81
2021/12/19 07:22:32;;;;;;;15.45;8.25;;;;;;;0.67;87.63;97801.14;1717074;83;21435;-81
2021/12/19 07:24:59;;;;;;;16.60;9.05;;;;;;;0.67;88.29;97792.43;1716972;83;21459;-80
2021/12/19 07:27:25;;;;;;;14.45;7.83;;;;;;;0.70;88.14;97788.55;1717154;83;20950;-80
2021/12/19 07:29:56;;;;;;;14.10;7.87;;;;;;;0.72;87.74;97789.00;1739615;82;21013;-80
2021/12/19 07:32:20;;;;;;;13.20;7.78;;;;;;;0.74;87.59;97780.73;1761497;81;22162;-80
2021/12/19 07:34:49;;;;;;;14.98;8.05;;;;;;;0.81;87.44;97777.73;1766498;81;21013;-81
2021/12/19 07:37:45;;;;;;;14.18;7.95;;;;;;;0.87;87.26;97775.16;1749348;81;21100;-81
2021/12/19 07:40:15;;;;;;;13.98;7.53;;;;;;;0.92;87.38;97779.11;1741431;82;20997;-81
2021/12/19 07:42:44;;;;;;;14.68;8.05;;;;;;;0.96;87.06;97781.30;1740848;82;21093;-80
2021/12/19 07:45:13;;;;;;;14.33;7.97;;;;;;;0.98;87.26;97776.53;1741314;82;20988;-80
2021/12/19 07:47:43;;;;;;;15.80;8.35;;;;;;;1.00;87.07;97768.72;1750039;81;21027;-80
2021/12/19 07:50:12;;;;;;;16.37;8.68;;;;;;;1.00;86.82;97759.13;1740980;82;21043;-80
2021/12/19 07:52:40;;;;;;;15.00;7.85;;;;;;;1.05;87.08;97765.70;1740979;82;21013;-80
2021/12/19 07:55:08;;;;;;;12.78;7.45;;;;;;;1.12;87.15;97765.30;1740648;82;21024;-80
2021/12/19 07:57:35;;;;;;;13.65;7.62;;;;;;;1.17;86.80;97759.66;1741860;82;21095;-80
2021/12/19 08:00:06;;;;;;;18.17;9.80;;;;;;;1.21;86.80;97754.89;1731101;82;21408;-80
2021/12/19 08:02:34;;;;;;;15.28;8.95;;;;;;;1.21;86.44;97756.20;1744763;82;21085;-81
2021/12/19 08:05:02;;;;;;;14.40;8.68;;;;;;;1.30;86.63;97763.19;1749154;82;21012;-81
2021/12/19 08:07:30;;;;;;;16.35;8.80;;;;;;;1.33;86.85;97756.69;1745648;82;21386;-80
2021/12/19 08:12:42;;;;;;;20.37;10.60;;;;;;;1.43;86.64;97738.88;1742466;82;21406;-79
2021/12/19 08:15:11;;;;;;;19.70;10.78;;;;;;;1.47;86.47;97738.86;1742187;82;20929;-79
2021/12/19 08:17:38;;;;;;;20.15;11.22;;;;;;;1.47;86.41;97735.83;1746201;82;20997;-80
2021/12/19 08:20:11;;;;;;;27.20;13.20;;;;;;;1.47;86.11;97748.89;1749646;82;21011;-80
2021/12/19 08:22:38;;;;;;;27.40;14.58;;;;;;;1.44;86.53;97740.61;1740083;82;20986;-80
2021/12/19 08:25:06;;;;;;;31.42;14.78;;;;;;;1.44;86.83;97741.91;1749090;82;21546;-80
2021/12/19 08:27:34;;;;;;;31.12;15.90;;;;;;;1.47;86.51;97735.83;1748827;82;20983;-80
2021/12/19 08:30:04;;;;;;;31.57;16.50;;;;;;;1.51;86.70;97741.50;1748459;82;20968;-80
2021/12/19 08:32:32;;;;;;;35.43;19.15;;;;;;;1.54;86.32;97741.94;1740999;82;21024;-80
2021/12/19 08:34:59;;;;;;;38.35;19.27;;;;;;;1.59;86.90;97742.82;1732416;82;20946;-80
2021/12/19 08:37:25;;;;;;;43.45;19.67;;;;;;;1.64;86.68;97735.87;1728612;82;21077;-80
2021/12/19 08:39:52;;;;;;;40.28;19.40;;;;;;;1.69;86.75;97729.33;1727876;82;21456;-79
2021/12/19 08:42:19;;;;;;;45.20;20.50;;;;;;;1.75;86.61;97712.80;1746025;82;21191;-80
2021/12/19 08:44:46;;;;;;;44.53;20.88;;;;;;;1.84;86.89;97718.89;1748448;82;20961;-80
2021/12/19 08:47:13;;;;;;;39.98;19.98;;;;;;;1.93;87.15;97718.05;1740945;82;21478;-81
2021/12/19 08:49:42;;;;;;;40.58;19.05;;;;;;;2.04;87.19;97708.88;1740635;82;20992;-80
2021/12/19 08:52:10;;;;;;;40.12;19.00;;;;;;;2.11;87.05;97708.03;1742321;82;21386;-80
2021/12/19 08:54:39;;;;;;;43.52;20.10;;;;;;;2.18;86.75;97722.39;1749150;82;21474;-80
2021/12/19 08:57:05;;;;;;;37.23;19.42;;;;;;;2.21;86.60;97714.56;1748979;82;21438;-79
2021/12/19 08:59:32;;;;;;;37.03;18.48;;;;;;;2.27;86.47;97717.59;1748932;82;21060;-80
2021/12/19 09:02:01;;;;;;;29.48;14.83;;;;;;;2.28;86.22;97716.74;1749299;82;20984;-80
2021/12/19 09:04:30;;;;;;;30.17;14.43;;;;;;;2.26;85.88;97721.97;1746054;82;20988;-80
2021/12/19 09:06:58;;;;;;;20.77;11.43;;;;;;;2.23;85.74;97712.80;1740490;82;20968;-80
2021/12/19 09:09:27;;;;;;;20.88;11.18;;;;;;;2.24;85.69;97714.12;1740438;82;20977;-80
2021/12/19 09:11:53;;;;;;;23.05;12.50;;;;;;;2.24;85.35;97708.00;1740951;82;20945;-80
2021/12/19 09:14:19;;;;;;;23.83;11.73;;;;;;;2.26;85.21;97691.02;1748403;82;21088;-80
2021/12/19 09:16:46;;;;;;;22.90;11.35;;;;;;;2.27;85.39;97692.32;1748994;82;21016;-79
2021/12/19 09:19:14;;;;;;;17.40;10.00;;;;;;;2.35;85.46;97679.23;1748455;82;21028;-80
2021/12/19 09:21:41;;;;;;;20.40;10.10;;;;;;;2.41;84.63;97679.21;1742683;82;21044;-80
2021/12/19 09:24:08;;;;;;;20.85;10.43;;;;;;;2.43;84.61;97664.41;1740302;82;21008;-80
2021/12/19 09:26:35;;;;;;;17.67;10.08;;;;;;;2.53;84.83;97667.00;1740090;82;21418;-80
2021/12/19 09:29:02;;;;;;;16.00;8.95;;;;;;;2.61;84.19;97656.94;1740269;82;20952;-80
2021/12/19 09:31:29;;;;;;;13.83;8.30;;;;;;;2.67;84.20;97658.67;1745571;82;21407;-80
2021/12/19 09:33:55;;;;;;;15.08;8.03;;;;;;;2.73;83.74;97659.95;1749106;82;21073;-80
2021/12/19 09:36:22;;;;;;;15.25;9.10;;;;;;;2.77;84.03;97654.27;1742387;82;21069;-79
2021/12/19 09:38:49;;;;;;;13.03;8.33;;;;;;;2.78;83.55;97645.53;1727636;83;20974;-80
2021/12/19 09:41:27;;;;;;;12.33;7.45;;;;;;;2.78;83.70;97637.67;1721756;82;21545;-80
2021/12/19 09:43:49;;;;;;;12.75;7.53;;;;;;;2.80;83.56;97619.36;1717392;83;21445;-80
2021/12/19 09:46:21;;;;;;;13.25;7.58;;;;;;;2.85;83.42;97622.83;1723292;83;20997;-80
2021/12/19 09:48:49;;;;;;;11.28;6.75;;;;;;;2.88;83.59;97610.62;1672296;85;20974;-79
2021/12/19 09:51:18;;;;;;;12.07;7.40;;;;;;;2.96;83.30;97619.73;1721186;83;21463;-79
2021/12/19 09:53:46;;;;;;;12.50;7.78;;;;;;;2.95;82.25;97614.05;1727857;83;21017;-80
2021/12/19 09:56:14;;;;;;;10.68;7.55;;;;;;;2.91;82.30;97616.27;1728336;83;21061;-80
2021/12/19 09:58:41;;;;;;;14.68;9.00;;;;;;;2.91;82.77;97605.80;1727202;83;21543;-79
2021/12/19 10:01:11;;;;;;;17.17;9.90;;;;;;;2.89;81.68;97595.34;1718011;83;21414;-80
2021/12/19 10:03:40;;;;;;;15.65;9.13;;;;;;;2.84;82.17;97585.33;1710164;83;20977;-80
2021/12/19 10:06:20;;;;;;;16.02;9.33;;;;;;;2.84;82.24;97578.78;1708345;84;21114;-80
2021/12/19 10:08:53;;;;;;;18.20;9.73;;;;;;;2.83;82.24;97563.94;1709077;83;21020;-79
2021/12/19 10:11:46;;;;;;;16.30;9.53;;;;;;;2.84;82.53;97546.50;1721692;82;21203;-78
2021/12/19 10:14:03;;;;;;;20.57;9.23;;;;;;;2.87;82.24;97533.41;1707411;83;21025;-79
2021/12/19 10:16:31;;;;;;;16.48;8.93;;;;;;;2.92;82.42;97534.25;1698132;83;21092;-80
2021/12/19 10:19:00;;;;;;;15.00;8.83;;;;;;;3.03;82.68;97530.22;1703524;83;20954;-80
2021/12/19 10:21:28;;;;;;;15.35;8.78;;;;;;;3.08;82.15;97528.47;1728042;83;20997;-79
2021/12/19 10:24:00;;;;;;;15.63;9.20;;;;;;;3.12;82.02;97524.92;1727978;83;21009;-79
2021/12/19 10:26:24;;;;;;;15.70;9.05;;;;;;;3.15;82.10;97525.34;1727517;83;20994;-81
2021/12/19 10:28:58;;;;;;;15.83;9.50;;;;;;;3.14;81.62;97519.25;1726699;83;21084;-82
2021/12/19 10:31:29;;;;;;;15.23;9.13;;;;;;;3.13;81.41;97512.29;1717846;83;21001;-81
2021/12/19 10:33:56;;;;;;;16.35;9.68;;;;;;;3.10;81.49;97504.44;1709331;83;21033;-82
2021/12/19 10:36:24;;;;;;;16.70;9.40;;;;;;;3.11;81.56;97494.85;1713264;82;21049;-81
2021/12/19 10:38:56;;;;;;;19.02;9.55;;;;;;;3.13;81.61;97491.77;1740885;82;20985;-81
2021/12/19 10:41:32;;;;;;;15.72;9.00;;;;;;;3.10;81.65;97484.80;1739131;82;21036;-80
2021/12/19 10:44:07;;;;;;;15.45;9.13;;;;;;;3.14;81.51;97479.09;1747912;82;21014;-80
2021/12/19 10:46:41;;;;;;;15.78;8.50;;;;;;;3.17;81.78;97465.98;1742073;82;21004;-80
2021/12/19 10:49:33;;;;;;;15.40;8.45;;;;;;;3.21;81.75;97457.66;1744949;81;21074;-78
2021/12/19 10:52:04;;;;;;;16.93;8.95;;;;;;;3.23;81.59;97453.27;1745577;80;20986;-78
2021/12/19 10:54:31;;;;;;;14.45;8.70;;;;;;;3.25;81.37;97451.09;1746513;81;21039;-78
2021/12/19 10:57:11;;;;;;;16.40;9.08;;;;;;;3.26;81.29;97444.08;1770208;81;20956;-78
2021/12/19 10:59:38;;;;;;;14.53;8.90;;;;;;;3.26;80.61;97446.27;1778758;81;20996;-82
2021/12/19 11:02:05;;;;;;;13.43;8.85;;;;;;;3.27;81.19;97444.08;1752780;81;20999;-79
2021/12/19 11:04:35;;;;;;;12.30;8.28;;;;;;;3.28;80.49;97436.64;1748322;82;20941;-79
2021/12/19 11:07:02;;;;;;;14.65;8.88;;;;;;;3.26;80.36;97441.03;1759692;81;21020;-78
2021/12/19 11:09:34;;;;;;;15.60;9.35;;;;;;;3.24;80.01;97431.45;1748884;82;21017;-79
2021/12/19 11:12:05;;;;;;;13.45;8.88;;;;;;;3.22;80.62;97424.91;1749409;82;21481;-77
2021/12/19 11:14:40;;;;;;;14.68;9.03;;;;;;;3.22;80.60;97418.38;1741615;82;21000;-80
2021/12/19 11:17:09;;;;;;;;;;;;;;;3.20;80.59;97407.02;1742683;82;20989;-77
2021/12/19 11:19:37;;;;;;;14.45;8.15;;;;;;;3.22;80.68;97408.33;1740532;82;20111;-77
2021/12/19 11:22:05;;;;;;;13.90;8.75;;;;;;;3.18;80.72;97395.71;1742221;82;21451;-77
2021/12/19 11:24:32;;;;;;;16.17;8.63;;;;;;;3.21;80.62;97394.37;1738834;82;21033;-77
2021/12/19 11:27:05;;;;;;;15.93;9.05;;;;;;;3.19;80.44;97396.13;1748714;82;21013;-77
2021/12/19 11:29:32;;;;;;;14.93;8.70;;;;;;;3.16;80.43;97393.09;1744387;82;20945;-78
2021/12/19 11:32:04;;;;;;;14.70;8.53;;;;;;;3.14;80.37;97367.81;1740100;82;20995;-75
2021/12/19 11:35:07;;;;;;;13.53;8.60;;;;;;;3.10;80.44;97366.98;1740133;82;21402;-77
2021/12/19 11:37:39;;;;;;;13.48;9.25;;;;;;;3.12;80.79;97369.59;1707956;82;20996;-78
2021/12/19 11:40:10;;;;;;;15.20;10.20;;;;;;;3.13;81.06;97369.58;1749307;82;21473;-78
2021/12/19 11:42:40;;;;;;;15.95;9.38;;;;;;;3.12;80.92;97366.52;1695473;82;21000;-77
2021/12/19 11:45:42;;;;;;;14.43;9.20;;;;;;;3.12;80.33;97357.34;1742742;82;21005;-77
2021/12/19 11:48:24;;;;;;;15.70;9.78;;;;;;;3.13;80.58;97354.30;1740642;82;21064;-77
2021/12/19 11:50:57;;;;;;;14.38;9.18;;;;;;;3.19;80.37;97347.69;1695366;84;21463;-76
2021/12/19 11:53:30;;;;;;;18.60;10.20;;;;;;;3.25;80.54;97346.34;1716782;83;21005;-78
2021/12/19 11:56:11;;;;;;;18.90;11.22;;;;;;;3.37;80.72;97342.69;1734288;82;21013;-77
2021/12/19 11:58:49;;;;;;;19.73;10.82;;;;;;;3.51;80.48;97346.48;1750534;81;20969;-78
2021/12/19 12:01:29;;;;;;;16.77;10.50;;;;;;;3.55;79.72;97341.63;1746534;81;20950;-77
2021/12/19 12:04:04;;;;;;;22.00;12.73;;;;;;;3.60;79.94;97340.25;1733670;82;21020;-78
2021/12/19 12:06:35;;;;;;;15.90;10.13;;;;;;;3.63;79.77;97336.72;1748405;81;20997;-78
2021/12/19 12:09:32;;;;;;;15.28;9.55;;;;;;;3.65;79.34;97338.90;1748437;81;21516;-78
2021/12/19 12:12:10;;;;;;;16.57;9.65;;;;;;;3.67;79.32;97333.18;1749820;81;21021;-77
2021/12/19 12:14:55;;;;;;;14.90;10.30;;;;;;;3.66;78.72;97330.14;1759046;81;20950;-78
2021/12/19 12:17:27;;;;;;;;;;;;;;;3.63;78.82;97334.98;1748060;82;21442;-79
2021/12/19 12:19:58;;;;;;;16.70;10.63;;;;;;;3.59;79.20;97322.80;1747785;81;20092;-77
2021/12/19 12:22:40;;;;;;;15.88;9.13;;;;;;;3.59;79.16;97321.48;1743780;81;21033;-76
2021/12/19 12:25:22;;;;;;;19.60;12.65;;;;;;;3.62;79.57;97323.20;1744307;81;21050;-77
2021/12/19 12:27:58;;;;;;;20.08;10.40;;;;;;;3.63;79.34;97316.64;1741561;81;20993;-76
2021/12/19 12:30:32;;;;;;;16.27;10.28;;;;;;;3.62;79.24;97304.43;1749445;81;21001;-77
2021/12/19 12:33:02;;;;;;;18.02;10.72;;;;;;;3.59;79.04;97302.27;1740754;81;21401;-76
2021/12/19 12:35:32;;;;;;;16.52;10.25;;;;;;;3.55;79.13;97298.39;1739557;81;21049;-78
2021/12/19 12:38:00;;;;;;;18.77;10.50;;;;;;;3.50;78.87;97299.33;1757470;81;20992;-79
2021/12/19 12:40:51;;;;;;;20.08;10.70;;;;;;;3.40;79.19;97302.48;1727457;82;21416;-79
2021/12/19 12:43:19;;;;;;;18.25;11.28;;;;;;;3.35;79.39;97301.67;1753413;81;21027;-79
2021/12/19 12:46:03;;;;;;;16.30;10.25;;;;;;;3.31;79.23;97308.71;1748904;81;21056;-78
2021/12/19 12:48:56;;;;;;;18.35;11.68;;;;;;;3.27;79.56;97310.94;1748295;82;21027;-77
2021/12/19 12:51:42;;;;;;;17.23;10.90;;;;;;;3.23;79.82;97314.03;1742504;82;21041;-79